sensor_id;sensor_type;location;lat;lon;timestamp;P1;durP1;ratioP1;P2;durP2;ratioP2
69203;SDS011;56317;27.658;85.326;2023-02-25T00:01:25;199.93;;;110.35;;
69203;SDS011;56317;27.658;85.326;2023-02-25T00:03:54;225.57;;;118.38;;
69203;SDS011;56317;27.658;85.326;2023-02-25T00:06:22;205.07;;;110.07;;
69203;SDS011;56317;27.658;85.326;2023-02-25T00:08:50;199.30;;;113.60;;
69203;SDS011;56317;27.658;85.326;2023-02-25T00:11:19;206.40;;;113.75;;
69203;SDS011;56317;27.658;85.326;2023-02-25T00:13:47;206.88;;;114.15;;
69203;SDS011;56317;27.658;85.326;2023-02-25T00:16:14;227.98;;;118.53;;
69203;SDS011;56317;27.658;85.326;2023-02-25T00:18:42;212.85;;;117.07;;
69203;SDS011;56317;27.658;85.326;2023-02-25T00:21:12;231.07;;;118.70;;
69203;SDS011;56317;27.658;85.326;2023-02-25T00:23:45;233.77;;;127.00;;
69203;SDS011;56317;27.658;85.326;2023-02-25T00:26:14;238.70;;;126.40;;
69203;SDS011;56317;27.658;85.326;2023-02-25T00:28:43;236.38;;;128.55;;
69203;SDS011;56317;27.658;85.326;2023-02-25T00:31:12;246.50;;;131.48;;
69203;SDS011;56317;27.658;85.326;2023-02-25T00:33:41;260.30;;;143.23;;
69203;SDS011;56317;27.658;85.326;2023-02-25T00:36:10;270.73;;;146.38;;
69203;SDS011;56317;27.658;85.326;2023-02-25T00:38:43;258.92;;;142.48;;
69203;SDS011;56317;27.658;85.326;2023-02-25T00:41:14;272.27;;;157.80;;
69203;SDS011;56317;27.658;85.326;2023-02-25T00:43:47;258.88;;;145.05;;
69203;SDS011;56317;27.658;85.326;2023-02-25T00:46:15;251.52;;;134.88;;
69203;SDS011;56317;27.658;85.326;2023-02-25T00:48:43;248.38;;;132.27;;
69203;SDS011;56317;27.658;85.326;2023-02-25T00:51:15;241.88;;;132.20;;
69203;SDS011;56317;27.658;85.326;2023-02-25T00:53:45;253.68;;;132.05;;
69203;SDS011;56317;27.658;85.326;2023-02-25T00:56:14;231.27;;;132.13;;
69203;SDS011;56317;27.658;85.326;2023-02-25T00:58:45;259.13;;;134.27;;
69203;SDS011;56317;27.658;85.326;2023-02-25T01:01:16;255.07;;;135.50;;
69203;SDS011;56317;27.658;85.326;2023-02-25T01:03:47;252.88;;;142.02;;
69203;SDS011;56317;27.658;85.326;2023-02-25T01:06:16;268.70;;;148.52;;
69203;SDS011;56317;27.658;85.326;2023-02-25T01:08:43;275.20;;;150.10;;
69203;SDS011;56317;27.658;85.326;2023-02-25T01:11:18;282.73;;;155.88;;
69203;SDS011;56317;27.658;85.326;2023-02-25T01:13:54;286.35;;;158.30;;
69203;SDS011;56317;27.658;85.326;2023-02-25T01:16:24;301.48;;;161.75;;
69203;SDS011;56317;27.658;85.326;2023-02-25T01:18:54;310.63;;;165.55;;
69203;SDS011;56317;27.658;85.326;2023-02-25T01:21:30;283.67;;;156.27;;
69203;SDS011;56317;27.658;85.326;2023-02-25T01:24:01;288.15;;;155.30;;
69203;SDS011;56317;27.658;85.326;2023-02-25T01:26:31;217.47;;;125.00;;
69203;SDS011;56317;27.658;85.326;2023-02-25T01:29:06;290.90;;;165.75;;
69203;SDS011;56317;27.658;85.326;2023-02-25T01:31:41;297.55;;;160.63;;
69203;SDS011;56317;27.658;85.326;2023-02-25T01:34:13;287.48;;;167.45;;
69203;SDS011;56317;27.658;85.326;2023-02-25T01:36:42;295.73;;;169.25;;
69203;SDS011;56317;27.658;85.326;2023-02-25T01:39:10;301.02;;;168.02;;
69203;SDS011;56317;27.658;85.326;2023-02-25T01:41:39;301.63;;;169.07;;
69203;SDS011;56317;27.658;85.326;2023-02-25T01:46:54;310.35;;;171.38;;
69203;SDS011;56317;27.658;85.326;2023-02-25T01:49:26;305.30;;;172.05;;
69203;SDS011;56317;27.658;85.326;2023-02-25T01:52:11;296.55;;;170.55;;
69203;SDS011;56317;27.658;85.326;2023-02-25T01:54:44;287.30;;;165.18;;
69203;SDS011;56317;27.658;85.326;2023-02-25T01:57:14;287.25;;;164.52;;
69203;SDS011;56317;27.658;85.326;2023-02-25T01:59:42;286.75;;;165.48;;
69203;SDS011;56317;27.658;85.326;2023-02-25T02:02:11;287.00;;;161.27;;
69203;SDS011;56317;27.658;85.326;2023-02-25T02:04:43;284.25;;;163.00;;
69203;SDS011;56317;27.658;85.326;2023-02-25T02:07:16;271.30;;;160.52;;
69203;SDS011;56317;27.658;85.326;2023-02-25T02:09:44;282.30;;;164.80;;
69203;SDS011;56317;27.658;85.326;2023-02-25T02:12:30;294.42;;;162.45;;
69203;SDS011;56317;27.658;85.326;2023-02-25T02:15:07;262.60;;;152.10;;
69203;SDS011;56317;27.658;85.326;2023-02-25T02:17:45;261.35;;;150.50;;
69203;SDS011;56317;27.658;85.326;2023-02-25T02:20:28;253.80;;;144.55;;
69203;SDS011;56317;27.658;85.326;2023-02-25T02:34:45;252.52;;;145.20;;
69203;SDS011;56317;27.658;85.326;2023-02-25T02:40:13;269.83;;;156.43;;
69203;SDS011;56317;27.658;85.326;2023-02-25T02:43:05;331.58;;;201.93;;
69203;SDS011;56317;27.658;85.326;2023-02-25T02:52:11;320.45;;;188.30;;
69203;SDS011;56317;27.658;85.326;2023-02-25T02:54:43;226.93;;;136.82;;
69203;SDS011;56317;27.658;85.326;2023-02-25T02:57:15;230.20;;;141.60;;
69203;SDS011;56317;27.658;85.326;2023-02-25T02:59:53;266.55;;;158.48;;
69203;SDS011;56317;27.658;85.326;2023-02-25T03:02:29;263.27;;;158.82;;
69203;SDS011;56317;27.658;85.326;2023-02-25T03:05:03;277.25;;;166.23;;
69203;SDS011;56317;27.658;85.326;2023-02-25T03:07:35;249.85;;;147.45;;
69203;SDS011;56317;27.658;85.326;2023-02-25T03:10:09;264.65;;;150.35;;
69203;SDS011;56317;27.658;85.326;2023-02-25T03:12:43;257.20;;;151.18;;
69203;SDS011;56317;27.658;85.326;2023-02-25T03:15:10;249.63;;;146.45;;
69203;SDS011;56317;27.658;85.326;2023-02-25T03:17:43;240.30;;;140.73;;
69203;SDS011;56317;27.658;85.326;2023-02-25T03:20:24;237.18;;;145.65;;
69203;SDS011;56317;27.658;85.326;2023-02-25T03:23:00;249.65;;;149.15;;
69203;SDS011;56317;27.658;85.326;2023-02-25T03:25:34;233.95;;;142.57;;
69203;SDS011;56317;27.658;85.326;2023-02-25T03:28:33;240.77;;;143.38;;
69203;SDS011;56317;27.658;85.326;2023-02-25T03:33:48;254.73;;;150.45;;
69203;SDS011;56317;27.658;85.326;2023-02-25T03:36:32;253.50;;;144.27;;
69203;SDS011;56317;27.658;85.326;2023-02-25T03:39:13;255.20;;;139.20;;
69203;SDS011;56317;27.658;85.326;2023-02-25T03:41:44;210.38;;;126.38;;
69203;SDS011;56317;27.658;85.326;2023-02-25T03:44:17;218.35;;;128.43;;
69203;SDS011;56317;27.658;85.326;2023-02-25T03:46:56;218.98;;;127.20;;
69203;SDS011;56317;27.658;85.326;2023-02-25T03:49:27;178.32;;;106.78;;
69203;SDS011;56317;27.658;85.326;2023-02-25T03:52:10;173.13;;;105.45;;
69203;SDS011;56317;27.658;85.326;2023-02-25T03:54:41;166.45;;;103.45;;
69203;SDS011;56317;27.658;85.326;2023-02-25T03:57:08;187.82;;;109.47;;
69203;SDS011;56317;27.658;85.326;2023-02-25T03:59:35;165.60;;;93.57;;
69203;SDS011;56317;27.658;85.326;2023-02-25T04:02:02;152.88;;;97.32;;
69203;SDS011;56317;27.658;85.326;2023-02-25T04:04:30;152.32;;;97.88;;
69203;SDS011;56317;27.658;85.326;2023-02-25T04:06:57;164.85;;;99.20;;
69203;SDS011;56317;27.658;85.326;2023-02-25T04:09:24;158.45;;;99.22;;
69203;SDS011;56317;27.658;85.326;2023-02-25T04:11:52;158.57;;;99.57;;
69203;SDS011;56317;27.658;85.326;2023-02-25T04:14:22;156.65;;;99.63;;
69203;SDS011;56317;27.658;85.326;2023-02-25T04:16:49;162.40;;;98.72;;
69203;SDS011;56317;27.658;85.326;2023-02-25T04:19:17;145.05;;;90.20;;
69203;SDS011;56317;27.658;85.326;2023-02-25T04:21:44;141.90;;;85.25;;
69203;SDS011;56317;27.658;85.326;2023-02-25T04:24:11;140.48;;;86.18;;
69203;SDS011;56317;27.658;85.326;2023-02-25T04:26:38;138.32;;;89.65;;
69203;SDS011;56317;27.658;85.326;2023-02-25T04:29:05;120.20;;;77.45;;
69203;SDS011;56317;27.658;85.326;2023-02-25T04:31:32;129.93;;;80.63;;
69203;SDS011;56317;27.658;85.326;2023-02-25T04:34:00;125.55;;;76.57;;
69203;SDS011;56317;27.658;85.326;2023-02-25T04:36:31;128.45;;;79.82;;
69203;SDS011;56317;27.658;85.326;2023-02-25T04:39:01;133.40;;;81.95;;
69203;SDS011;56317;27.658;85.326;2023-02-25T04:41:32;127.57;;;77.47;;
69203;SDS011;56317;27.658;85.326;2023-02-25T04:44:00;127.90;;;75.32;;
69203;SDS011;56317;27.658;85.326;2023-02-25T04:46:29;126.57;;;81.28;;
69203;SDS011;56317;27.658;85.326;2023-02-25T04:48:56;142.95;;;84.63;;
69203;SDS011;56317;27.658;85.326;2023-02-25T04:51:24;134.77;;;82.82;;
69203;SDS011;56317;27.658;85.326;2023-02-25T04:53:51;122.90;;;80.35;;
69203;SDS011;56317;27.658;85.326;2023-02-25T04:56:18;127.32;;;81.38;;
69203;SDS011;56317;27.658;85.326;2023-02-25T04:58:45;115.97;;;74.88;;
69203;SDS011;56317;27.658;85.326;2023-02-25T05:01:13;104.18;;;68.38;;
69203;SDS011;56317;27.658;85.326;2023-02-25T05:03:41;114.05;;;74.38;;
69203;SDS011;56317;27.658;85.326;2023-02-25T05:06:09;113.88;;;73.43;;
69203;SDS011;56317;27.658;85.326;2023-02-25T05:08:36;101.45;;;70.20;;
69203;SDS011;56317;27.658;85.326;2023-02-25T05:11:03;109.20;;;71.32;;
69203;SDS011;56317;27.658;85.326;2023-02-25T05:13:37;107.03;;;67.25;;
69203;SDS011;56317;27.658;85.326;2023-02-25T05:16:05;104.88;;;64.50;;
69203;SDS011;56317;27.658;85.326;2023-02-25T05:18:39;100.10;;;62.05;;
69203;SDS011;56317;27.658;85.326;2023-02-25T05:21:12;94.15;;;62.20;;
69203;SDS011;56317;27.658;85.326;2023-02-25T05:23:41;95.80;;;58.63;;
69203;SDS011;56317;27.658;85.326;2023-02-25T05:26:09;91.13;;;60.70;;
69203;SDS011;56317;27.658;85.326;2023-02-25T05:28:37;96.00;;;59.88;;
69203;SDS011;56317;27.658;85.326;2023-02-25T05:31:05;93.03;;;60.95;;
69203;SDS011;56317;27.658;85.326;2023-02-25T05:33:37;98.82;;;62.13;;
69203;SDS011;56317;27.658;85.326;2023-02-25T05:36:09;94.07;;;58.35;;
69203;SDS011;56317;27.658;85.326;2023-02-25T05:38:38;89.10;;;57.40;;
69203;SDS011;56317;27.658;85.326;2023-02-25T05:41:06;75.28;;;54.17;;
69203;SDS011;56317;27.658;85.326;2023-02-25T05:43:34;80.03;;;55.10;;
69203;SDS011;56317;27.658;85.326;2023-02-25T05:46:02;83.65;;;56.72;;
69203;SDS011;56317;27.658;85.326;2023-02-25T05:48:33;81.40;;;54.55;;
69203;SDS011;56317;27.658;85.326;2023-02-25T05:51:01;79.35;;;54.50;;
69203;SDS011;56317;27.658;85.326;2023-02-25T05:53:33;85.07;;;51.80;;
69203;SDS011;56317;27.658;85.326;2023-02-25T05:56:05;84.90;;;52.15;;
69203;SDS011;56317;27.658;85.326;2023-02-25T05:58:34;79.18;;;49.88;;
69203;SDS011;56317;27.658;85.326;2023-02-25T06:01:08;76.15;;;52.63;;
69203;SDS011;56317;27.658;85.326;2023-02-25T06:03:38;70.55;;;49.70;;
69203;SDS011;56317;27.658;85.326;2023-02-25T06:06:06;79.57;;;50.40;;
69203;SDS011;56317;27.658;85.326;2023-02-25T06:08:35;77.53;;;48.58;;
69203;SDS011;56317;27.658;85.326;2023-02-25T06:11:07;70.53;;;48.17;;
69203;SDS011;56317;27.658;85.326;2023-02-25T06:13:34;70.60;;;47.05;;
69203;SDS011;56317;27.658;85.326;2023-02-25T06:16:02;69.72;;;46.63;;
69203;SDS011;56317;27.658;85.326;2023-02-25T06:18:30;70.00;;;48.47;;
69203;SDS011;56317;27.658;85.326;2023-02-25T06:23:35;69.55;;;46.40;;
69203;SDS011;56317;27.658;85.326;2023-02-25T06:26:04;67.25;;;45.40;;
69203;SDS011;56317;27.658;85.326;2023-02-25T06:28:33;77.07;;;47.20;;
69203;SDS011;56317;27.658;85.326;2023-02-25T06:31:01;65.95;;;46.08;;
69203;SDS011;56317;27.658;85.326;2023-02-25T06:33:31;67.45;;;45.17;;
69203;SDS011;56317;27.658;85.326;2023-02-25T06:35:58;74.70;;;43.50;;
69203;SDS011;56317;27.658;85.326;2023-02-25T06:38:26;70.50;;;44.10;;
69203;SDS011;56317;27.658;85.326;2023-02-25T06:40:53;62.05;;;43.28;;
69203;SDS011;56317;27.658;85.326;2023-02-25T06:43:20;62.00;;;41.90;;
69203;SDS011;56317;27.658;85.326;2023-02-25T06:45:47;68.07;;;43.42;;
69203;SDS011;56317;27.658;85.326;2023-02-25T06:48:14;60.95;;;41.83;;
69203;SDS011;56317;27.658;85.326;2023-02-25T06:50:42;65.90;;;42.45;;
69203;SDS011;56317;27.658;85.326;2023-02-25T06:53:09;70.65;;;43.03;;
69203;SDS011;56317;27.658;85.326;2023-02-25T06:55:39;69.63;;;42.72;;
69203;SDS011;56317;27.658;85.326;2023-02-25T06:58:06;68.43;;;43.10;;
69203;SDS011;56317;27.658;85.326;2023-02-25T07:00:37;69.38;;;42.78;;
69203;SDS011;56317;27.658;85.326;2023-02-25T07:03:11;59.67;;;41.95;;
69203;SDS011;56317;27.658;85.326;2023-02-25T07:05:38;66.13;;;43.05;;
69203;SDS011;56317;27.658;85.326;2023-02-25T07:08:06;60.85;;;41.40;;
69203;SDS011;56317;27.658;85.326;2023-02-25T07:10:33;64.10;;;39.40;;
69203;SDS011;56317;27.658;85.326;2023-02-25T07:13:01;67.80;;;41.15;;
69203;SDS011;56317;27.658;85.326;2023-02-25T07:15:28;62.10;;;42.38;;
69203;SDS011;56317;27.658;85.326;2023-02-25T07:17:55;67.25;;;42.28;;
69203;SDS011;56317;27.658;85.326;2023-02-25T07:20:22;67.13;;;44.30;;
69203;SDS011;56317;27.658;85.326;2023-02-25T07:22:49;69.78;;;45.85;;
69203;SDS011;56317;27.658;85.326;2023-02-25T07:25:17;69.85;;;46.55;;
69203;SDS011;56317;27.658;85.326;2023-02-25T07:27:44;78.07;;;47.97;;
69203;SDS011;56317;27.658;85.326;2023-02-25T07:30:11;74.78;;;48.25;;
69203;SDS011;56317;27.658;85.326;2023-02-25T07:32:39;71.05;;;48.47;;
69203;SDS011;56317;27.658;85.326;2023-02-25T07:35:07;74.10;;;48.53;;
69203;SDS011;56317;27.658;85.326;2023-02-25T07:37:35;73.55;;;48.65;;
69203;SDS011;56317;27.658;85.326;2023-02-25T07:40:03;71.57;;;46.15;;
69203;SDS011;56317;27.658;85.326;2023-02-25T07:42:34;72.85;;;47.50;;
69203;SDS011;56317;27.658;85.326;2023-02-25T07:45:05;78.63;;;45.65;;
69203;SDS011;56317;27.658;85.326;2023-02-25T07:47:37;72.43;;;49.45;;
69203;SDS011;56317;27.658;85.326;2023-02-25T07:50:05;80.72;;;49.45;;
69203;SDS011;56317;27.658;85.326;2023-02-25T07:52:33;91.60;;;48.55;;
69203;SDS011;56317;27.658;85.326;2023-02-25T07:55:02;72.57;;;48.58;;
69203;SDS011;56317;27.658;85.326;2023-02-25T07:57:29;85.88;;;47.80;;
69203;SDS011;56317;27.658;85.326;2023-02-25T07:59:57;75.78;;;51.10;;
69203;SDS011;56317;27.658;85.326;2023-02-25T08:02:24;82.47;;;50.22;;
69203;SDS011;56317;27.658;85.326;2023-02-25T08:04:51;79.97;;;48.85;;
69203;SDS011;56317;27.658;85.326;2023-02-25T08:07:19;78.30;;;47.33;;
69203;SDS011;56317;27.658;85.326;2023-02-25T08:09:49;75.55;;;48.13;;
69203;SDS011;56317;27.658;85.326;2023-02-25T08:12:16;75.53;;;47.17;;
69203;SDS011;56317;27.658;85.326;2023-02-25T08:14:43;74.97;;;48.72;;
69203;SDS011;56317;27.658;85.326;2023-02-25T08:17:11;84.45;;;50.38;;
69203;SDS011;56317;27.658;85.326;2023-02-25T08:19:38;72.90;;;47.47;;
69203;SDS011;56317;27.658;85.326;2023-02-25T08:22:07;74.30;;;47.75;;
69203;SDS011;56317;27.658;85.326;2023-02-25T08:24:38;82.30;;;49.63;;
69203;SDS011;56317;27.658;85.326;2023-02-25T08:27:05;86.38;;;49.28;;
69203;SDS011;56317;27.658;85.326;2023-02-25T08:29:36;86.82;;;48.35;;
69203;SDS011;56317;27.658;85.326;2023-02-25T08:32:06;72.47;;;48.25;;
69203;SDS011;56317;27.658;85.326;2023-02-25T08:34:34;74.63;;;48.88;;
69203;SDS011;56317;27.658;85.326;2023-02-25T08:37:02;73.85;;;49.33;;
69203;SDS011;56317;27.658;85.326;2023-02-25T08:39:29;90.65;;;50.90;;
69203;SDS011;56317;27.658;85.326;2023-02-25T08:42:00;83.63;;;50.00;;
69203;SDS011;56317;27.658;85.326;2023-02-25T08:44:30;78.40;;;49.28;;
69203;SDS011;56317;27.658;85.326;2023-02-25T08:47:00;80.70;;;49.88;;
69203;SDS011;56317;27.658;85.326;2023-02-25T08:49:27;83.00;;;49.80;;
69203;SDS011;56317;27.658;85.326;2023-02-25T08:51:54;78.60;;;49.92;;
69203;SDS011;56317;27.658;85.326;2023-02-25T08:54:22;72.05;;;49.08;;
69203;SDS011;56317;27.658;85.326;2023-02-25T08:56:49;81.82;;;50.90;;
69203;SDS011;56317;27.658;85.326;2023-02-25T08:59:18;86.40;;;50.42;;
69203;SDS011;56317;27.658;85.326;2023-02-25T09:01:46;94.22;;;53.63;;
69203;SDS011;56317;27.658;85.326;2023-02-25T09:04:18;81.60;;;51.35;;
69203;SDS011;56317;27.658;85.326;2023-02-25T09:06:48;82.50;;;54.10;;
69203;SDS011;56317;27.658;85.326;2023-02-25T09:09:17;88.15;;;52.58;;
69203;SDS011;56317;27.658;85.326;2023-02-25T09:11:45;79.97;;;51.97;;
69203;SDS011;56317;27.658;85.326;2023-02-25T09:14:13;83.72;;;55.20;;
69203;SDS011;56317;27.658;85.326;2023-02-25T09:16:41;94.13;;;55.50;;
69203;SDS011;56317;27.658;85.326;2023-02-25T09:19:08;87.18;;;55.78;;
69203;SDS011;56317;27.658;85.326;2023-02-25T09:21:37;86.25;;;54.28;;
69203;SDS011;56317;27.658;85.326;2023-02-25T09:24:07;91.38;;;55.08;;
69203;SDS011;56317;27.658;85.326;2023-02-25T09:26:35;85.03;;;54.50;;
69203;SDS011;56317;27.658;85.326;2023-02-25T09:29:03;83.65;;;54.10;;
69203;SDS011;56317;27.658;85.326;2023-02-25T09:31:31;88.20;;;52.10;;
69203;SDS011;56317;27.658;85.326;2023-02-25T09:34:01;78.22;;;51.13;;
69203;SDS011;56317;27.658;85.326;2023-02-25T09:36:31;77.10;;;52.97;;
69203;SDS011;56317;27.658;85.326;2023-02-25T09:38:58;81.93;;;52.05;;
69203;SDS011;56317;27.658;85.326;2023-02-25T09:44:03;76.72;;;50.90;;
69203;SDS011;56317;27.658;85.326;2023-02-25T09:46:48;79.65;;;51.17;;
69203;SDS011;56317;27.658;85.326;2023-02-25T09:49:24;88.47;;;53.90;;
69203;SDS011;56317;27.658;85.326;2023-02-25T09:52:32;87.38;;;54.92;;
69203;SDS011;56317;27.658;85.326;2023-02-25T10:00:39;82.15;;;53.08;;
69203;SDS011;56317;27.658;85.326;2023-02-25T10:03:21;79.90;;;52.88;;
69203;SDS011;56317;27.658;85.326;2023-02-25T10:09:00;89.07;;;54.30;;
69203;SDS011;56317;27.658;85.326;2023-02-25T10:24:43;99.57;;;60.58;;
69203;SDS011;56317;27.658;85.326;2023-02-25T10:32:33;106.28;;;60.80;;
69203;SDS011;56317;27.658;85.326;2023-02-25T10:35:16;88.72;;;57.60;;
69203;SDS011;56317;27.658;85.326;2023-02-25T10:37:53;103.95;;;65.22;;
69203;SDS011;56317;27.658;85.326;2023-02-25T10:40:21;104.80;;;69.82;;
69203;SDS011;56317;27.658;85.326;2023-02-25T10:42:54;109.25;;;72.13;;
69203;SDS011;56317;27.658;85.326;2023-02-25T10:45:29;117.18;;;71.63;;
69203;SDS011;56317;27.658;85.326;2023-02-25T10:48:17;107.13;;;67.82;;
69203;SDS011;56317;27.658;85.326;2023-02-25T10:51:10;112.35;;;67.05;;
69203;SDS011;56317;27.658;85.326;2023-02-25T10:53:38;103.43;;;67.72;;
69203;SDS011;56317;27.658;85.326;2023-02-25T10:56:18;104.65;;;68.03;;
69203;SDS011;56317;27.658;85.326;2023-02-25T11:01:44;113.82;;;68.55;;
69203;SDS011;56317;27.658;85.326;2023-02-25T11:04:13;124.70;;;75.00;;
69203;SDS011;56317;27.658;85.326;2023-02-25T11:06:43;117.28;;;74.65;;
69203;SDS011;56317;27.658;85.326;2023-02-25T11:11:55;122.18;;;80.88;;
69203;SDS011;56317;27.658;85.326;2023-02-25T11:14:30;122.10;;;75.75;;
69203;SDS011;56317;27.658;85.326;2023-02-25T11:17:03;132.18;;;81.03;;
69203;SDS011;56317;27.658;85.326;2023-02-25T11:22:35;128.43;;;82.55;;
69203;SDS011;56317;27.658;85.326;2023-02-25T11:25:17;134.57;;;83.50;;
69203;SDS011;56317;27.658;85.326;2023-02-25T11:27:47;155.38;;;87.95;;
69203;SDS011;56317;27.658;85.326;2023-02-25T11:30:33;143.00;;;89.53;;
69203;SDS011;56317;27.658;85.326;2023-02-25T11:33:13;159.02;;;93.53;;
69203;SDS011;56317;27.658;85.326;2023-02-25T11:35:53;150.02;;;94.82;;
69203;SDS011;56317;27.658;85.326;2023-02-25T11:40:57;160.50;;;93.75;;
69203;SDS011;56317;27.658;85.326;2023-02-25T11:43:25;149.00;;;86.70;;
69203;SDS011;56317;27.658;85.326;2023-02-25T11:46:06;156.57;;;94.47;;
69203;SDS011;56317;27.658;85.326;2023-02-25T11:51:29;203.80;;;123.93;;
69203;SDS011;56317;27.658;85.326;2023-02-25T11:59:54;168.93;;;107.18;;
69203;SDS011;56317;27.658;85.326;2023-02-25T12:03:04;176.48;;;105.95;;
69203;SDS011;56317;27.658;85.326;2023-02-25T12:08:34;195.23;;;117.78;;
69203;SDS011;56317;27.658;85.326;2023-02-25T12:36:51;187.32;;;112.93;;
69203;SDS011;56317;27.658;85.326;2023-02-25T12:39:30;186.65;;;114.30;;
69203;SDS011;56317;27.658;85.326;2023-02-25T12:42:23;182.40;;;112.47;;
69203;SDS011;56317;27.658;85.326;2023-02-25T13:18:18;203.82;;;117.88;;
69203;SDS011;56317;27.658;85.326;2023-02-25T13:29:18;204.48;;;121.03;;
69203;SDS011;56317;27.658;85.326;2023-02-25T13:31:52;203.98;;;120.90;;
69203;SDS011;56317;27.658;85.326;2023-02-25T13:40:28;212.05;;;120.32;;
69203;SDS011;56317;27.658;85.326;2023-02-25T13:42:59;198.23;;;117.93;;
69203;SDS011;56317;27.658;85.326;2023-02-25T13:48:25;207.38;;;119.43;;
69203;SDS011;56317;27.658;85.326;2023-02-25T13:54:03;219.40;;;121.47;;
69203;SDS011;56317;27.658;85.326;2023-02-25T14:02:49;201.48;;;119.55;;
69203;SDS011;56317;27.658;85.326;2023-02-25T14:05:58;208.38;;;121.78;;
69203;SDS011;56317;27.658;85.326;2023-02-25T14:14:29;210.10;;;123.15;;
69203;SDS011;56317;27.658;85.326;2023-02-25T14:24:55;222.32;;;127.93;;
69203;SDS011;56317;27.658;85.326;2023-02-25T14:35:42;218.73;;;134.00;;
69203;SDS011;56317;27.658;85.326;2023-02-25T14:38:47;223.57;;;129.65;;
69203;SDS011;56317;27.658;85.326;2023-02-25T14:44:32;210.18;;;126.10;;
69203;SDS011;56317;27.658;85.326;2023-02-25T14:47:13;213.82;;;129.23;;
69203;SDS011;56317;27.658;85.326;2023-02-25T15:06:51;205.63;;;122.18;;
69203;SDS011;56317;27.658;85.326;2023-02-25T15:18:26;208.77;;;123.25;;
69203;SDS011;56317;27.658;85.326;2023-02-25T15:24:01;203.38;;;119.63;;
69203;SDS011;56317;27.658;85.326;2023-02-25T15:26:42;210.98;;;122.65;;
69203;SDS011;56317;27.658;85.326;2023-02-25T15:29:18;208.93;;;122.72;;
69203;SDS011;56317;27.658;85.326;2023-02-25T15:37:33;203.93;;;118.22;;
69203;SDS011;56317;27.658;85.326;2023-02-25T15:58:49;207.70;;;119.95;;
69203;SDS011;56317;27.658;85.326;2023-02-25T16:01:38;200.82;;;121.75;;
69203;SDS011;56317;27.658;85.326;2023-02-25T16:07:14;198.23;;;122.72;;
69203;SDS011;56317;27.658;85.326;2023-02-25T16:09:46;204.45;;;121.57;;
69203;SDS011;56317;27.658;85.326;2023-02-25T16:12:23;210.02;;;123.88;;
69203;SDS011;56317;27.658;85.326;2023-02-25T16:14:52;224.25;;;126.38;;
69203;SDS011;56317;27.658;85.326;2023-02-25T16:17:34;236.18;;;128.93;;
69203;SDS011;56317;27.658;85.326;2023-02-25T16:20:08;226.57;;;128.57;;
69203;SDS011;56317;27.658;85.326;2023-02-25T16:22:38;213.45;;;128.60;;
69203;SDS011;56317;27.658;85.326;2023-02-25T16:25:14;208.77;;;125.35;;
69203;SDS011;56317;27.658;85.326;2023-02-25T16:27:53;220.82;;;127.40;;
69203;SDS011;56317;27.658;85.326;2023-02-25T16:34:18;210.40;;;124.88;;
69203;SDS011;56317;27.658;85.326;2023-02-25T16:37:02;160.23;;;96.97;;
69203;SDS011;56317;27.658;85.326;2023-02-25T16:39:39;221.95;;;123.63;;
69203;SDS011;56317;27.658;85.326;2023-02-25T16:42:14;223.05;;;127.05;;
69203;SDS011;56317;27.658;85.326;2023-02-25T16:44:43;220.98;;;127.35;;
69203;SDS011;56317;27.658;85.326;2023-02-25T16:47:23;221.73;;;126.30;;
69203;SDS011;56317;27.658;85.326;2023-02-25T16:49:53;202.47;;;119.53;;
69203;SDS011;56317;27.658;85.326;2023-02-25T16:52:40;217.88;;;129.27;;
69203;SDS011;56317;27.658;85.326;2023-02-25T16:55:23;221.60;;;126.10;;
69203;SDS011;56317;27.658;85.326;2023-02-25T16:58:00;222.75;;;126.47;;
69203;SDS011;56317;27.658;85.326;2023-02-25T17:01:12;208.32;;;125.28;;
69203;SDS011;56317;27.658;85.326;2023-02-25T17:03:45;208.43;;;124.20;;
69203;SDS011;56317;27.658;85.326;2023-02-25T17:06:16;214.57;;;123.63;;
69203;SDS011;56317;27.658;85.326;2023-02-25T17:08:46;208.30;;;120.28;;
69203;SDS011;56317;27.658;85.326;2023-02-25T17:11:18;203.45;;;120.63;;
69203;SDS011;56317;27.658;85.326;2023-02-25T17:13:48;208.00;;;121.03;;
69203;SDS011;56317;27.658;85.326;2023-02-25T17:19:17;216.73;;;120.07;;
69203;SDS011;56317;27.658;85.326;2023-02-25T17:21:50;223.25;;;126.43;;
69203;SDS011;56317;27.658;85.326;2023-02-25T17:24:23;216.68;;;127.40;;
69203;SDS011;56317;27.658;85.326;2023-02-25T17:26:54;221.70;;;130.98;;
69203;SDS011;56317;27.658;85.326;2023-02-25T17:29:22;236.77;;;141.35;;
69203;SDS011;56317;27.658;85.326;2023-02-25T17:31:59;234.10;;;139.13;;
69203;SDS011;56317;27.658;85.326;2023-02-25T17:34:37;241.27;;;138.93;;
69203;SDS011;56317;27.658;85.326;2023-02-25T17:37:05;243.75;;;141.45;;
69203;SDS011;56317;27.658;85.326;2023-02-25T17:39:34;228.98;;;142.55;;
69203;SDS011;56317;27.658;85.326;2023-02-25T17:42:24;243.13;;;146.50;;
69203;SDS011;56317;27.658;85.326;2023-02-25T17:44:54;265.00;;;156.25;;
69203;SDS011;56317;27.658;85.326;2023-02-25T17:47:30;276.65;;;162.80;;
69203;SDS011;56317;27.658;85.326;2023-02-25T17:50:08;275.80;;;167.40;;
69203;SDS011;56317;27.658;85.326;2023-02-25T17:52:57;276.23;;;165.05;;
69203;SDS011;56317;27.658;85.326;2023-02-25T17:55:25;273.23;;;159.60;;
69203;SDS011;56317;27.658;85.326;2023-02-25T17:57:57;260.20;;;149.73;;
69203;SDS011;56317;27.658;85.326;2023-02-25T18:00:27;252.10;;;147.95;;
69203;SDS011;56317;27.658;85.326;2023-02-25T18:05:52;239.35;;;139.50;;
69203;SDS011;56317;27.658;85.326;2023-02-25T18:08:24;237.35;;;139.20;;
69203;SDS011;56317;27.658;85.326;2023-02-25T18:13:25;255.18;;;143.10;;
69203;SDS011;56317;27.658;85.326;2023-02-25T18:18:51;239.68;;;140.73;;
69203;SDS011;56317;27.658;85.326;2023-02-25T18:21:20;235.48;;;141.60;;
69203;SDS011;56317;27.658;85.326;2023-02-25T18:23:47;252.85;;;146.18;;
69203;SDS011;56317;27.658;85.326;2023-02-25T18:26:16;253.50;;;145.88;;
69203;SDS011;56317;27.658;85.326;2023-02-25T18:28:50;262.92;;;147.48;;
69203;SDS011;56317;27.658;85.326;2023-02-25T18:31:18;256.45;;;145.55;;
69203;SDS011;56317;27.658;85.326;2023-02-25T18:33:46;242.73;;;144.30;;
69203;SDS011;56317;27.658;85.326;2023-02-25T18:36:18;232.18;;;138.60;;
69203;SDS011;56317;27.658;85.326;2023-02-25T18:38:55;235.70;;;140.07;;
69203;SDS011;56317;27.658;85.326;2023-02-25T18:41:27;233.85;;;135.85;;
69203;SDS011;56317;27.658;85.326;2023-02-25T18:43:54;227.82;;;134.45;;
69203;SDS011;56317;27.658;85.326;2023-02-25T18:46:22;227.90;;;135.65;;